Time;durP1;ratioP1;P1;durP2;ratioP2;P2;SDS_P1;SDS_P2;PMS_P1;PMS_P2;Temp;Humidity;BMP_temperature;BMP_pressure;BME280_temperature;BME280_humidity;BME280_pressure;Samples;Min_cycle;Max_cycle;Signal;HPM_P1;HPM_P2
2022/07/26 00:00:50;;;;;;;2.70;1.80;;;;;;;;;;5078576;28;20594;-65
2022/07/26 00:03:18;;;;;;;1.33;1.30;;;;;;;;;;5052632;28;20200;-64
2022/07/26 00:05:45;;;;;;;1.95;1.40;;;;;;;;;;5069227;28;20203;-64
2022/07/26 00:08:12;;;;;;;3.25;1.55;;;;;;;;;;5068837;28;20203;-64
2022/07/26 00:10:40;;;;;;;2.80;1.48;;;;;;;;;;5061760;28;20578;-64
2022/07/26 00:13:08;;;;;;;1.65;1.52;;;;;;;;;;5056109;28;20211;-64
2022/07/26 00:15:35;;;;;;;2.03;1.85;;;;;;;;;;5056160;28;20285;-64
2022/07/26 00:18:10;;;;;;;2.75;1.45;;;;;;;;;;5076338;28;20207;-65
2022/07/26 00:20:38;;;;;;;2.80;1.73;;;;;;;;;;5062036;28;20207;-64
2022/07/26 00:23:06;;;;;;;3.55;1.90;;;;;;;;;;5050675;28;20266;-65
2022/07/26 00:28:19;;;;;;;1.85;1.48;;;;;;;;;;5059005;28;20211;-65
2022/07/26 00:30:46;;;;;;;2.05;1.70;;;;;;;;;;5063314;28;20208;-64
2022/07/26 00:33:13;;;;;;;1.80;1.70;;;;;;;;;;5057432;28;20661;-64
2022/07/26 00:35:42;;;;;;;3.47;1.90;;;;;;;;;;5066645;28;20223;-65
2022/07/26 00:38:09;;;;;;;6.15;1.50;;;;;;;;;;5068618;28;20207;-65
2022/07/26 00:40:36;;;;;;;2.60;1.63;;;;;;;;;;5065021;28;20207;-64
2022/07/26 00:43:03;;;;;;;3.58;1.73;;;;;;;;;;5062953;28;20207;-64
2022/07/26 00:45:30;;;;;;;1.70;1.52;;;;;;;;;;5066606;28;20210;-64
2022/07/26 00:47:57;;;;;;;2.05;1.60;;;;;;;;;;5065756;28;20251;-64
2022/07/26 00:50:24;;;;;;;3.25;1.77;;;;;;;;;;5067372;28;20207;-64
2022/07/26 00:52:53;;;;;;;2.05;1.35;;;;;;;;;;5064711;28;20250;-64
2022/07/26 00:55:20;;;;;;;4.30;1.63;;;;;;;;;;5067797;28;20235;-64
2022/07/26 00:57:48;;;;;;;2.33;1.80;;;;;;;;;;5067707;28;20292;-64
2022/07/26 01:00:16;;;;;;;5.43;1.40;;;;;;;;;;5066776;28;20202;-64
2022/07/26 01:02:44;;;;;;;2.50;1.38;;;;;;;;;;5063810;28;20217;-64
2022/07/26 01:05:11;;;;;;;3.60;1.48;;;;;;;;;;5066301;28;20199;-64
2022/07/26 01:07:39;;;;;;;1.40;1.30;;;;;;;;;;5063140;28;20272;-64
2022/07/26 01:10:11;;;;;;;2.03;1.30;;;;;;;;;;5067591;28;20203;-64
2022/07/26 01:12:38;;;;;;;1.90;1.20;;;;;;;;;;5064863;28;20661;-64
2022/07/26 01:15:05;;;;;;;3.50;1.42;;;;;;;;;;5064053;28;20691;-64
2022/07/26 01:17:32;;;;;;;4.80;1.30;;;;;;;;;;5065316;28;21466;-64
2022/07/26 01:20:00;;;;;;;1.10;1.10;;;;;;;;;;5062253;28;20222;-64
2022/07/26 01:22:28;;;;;;;2.38;1.42;;;;;;;;;;5066049;28;20200;-64
2022/07/26 01:24:55;;;;;;;1.30;1.30;;;;;;;;;;5067587;28;20206;-64
2022/07/26 01:27:23;;;;;;;3.58;1.17;;;;;;;;;;5063542;28;20676;-65
2022/07/26 01:29:50;;;;;;;1.52;1.40;;;;;;;;;;5065131;28;20264;-64
2022/07/26 01:32:17;;;;;;;2.92;1.23;;;;;;;;;;5054816;28;20231;-64
2022/07/26 01:34:44;;;;;;;1.42;1.30;;;;;;;;;;5050355;28;20256;-64
2022/07/26 01:37:11;;;;;;;1.85;1.15;;;;;;;;;;5065453;28;20293;-65
2022/07/26 01:39:40;;;;;;;5.93;1.48;;;;;;;;;;5067500;28;20203;-65
2022/07/26 01:42:07;;;;;;;1.70;1.30;;;;;;;;;;5066599;28;20210;-64
2022/07/26 01:44:34;;;;;;;1.90;1.58;;;;;;;;;;5069122;28;20211;-64
2022/07/26 01:47:01;;;;;;;2.20;1.10;;;;;;;;;;5058492;28;20207;-64
2022/07/26 01:49:28;;;;;;;1.42;1.33;;;;;;;;;;5068961;28;20199;-64
2022/07/26 01:51:55;;;;;;;1.33;1.10;;;;;;;;;;5067900;28;20708;-63
2022/07/26 01:54:22;;;;;;;1.95;1.13;;;;;;;;;;5067171;28;20215;-64
2022/07/26 01:56:50;;;;;;;0.90;0.90;;;;;;;;;;5065291;28;20234;-64
2022/07/26 01:59:18;;;;;;;1.55;1.13;;;;;;;;;;5057993;28;20212;-64
2022/07/26 02:01:45;;;;;;;3.78;1.45;;;;;;;;;;5058803;28;20632;-64
2022/07/26 02:04:57;;;;;;;1.45;1.35;;;;;;;;;;5073007;28;20256;-64
2022/07/26 02:06:59;;;;;;;0.95;0.95;;;;;;;;;;5066456;28;20202;-64
2022/07/26 02:09:26;;;;;;;2.05;1.30;;;;;;;;;;5078341;28;20204;-64
2022/07/26 02:11:54;;;;;;;1.85;1.23;;;;;;;;;;5062875;28;20677;-64
2022/07/26 02:14:21;;;;;;;1.48;1.20;;;;;;;;;;5075646;28;20211;-64
2022/07/26 02:16:48;;;;;;;1.92;1.15;;;;;;;;;;5067796;28;20223;-64
2022/07/26 02:19:15;;;;;;;2.65;1.30;;;;;;;;;;5072600;28;20735;-64
2022/07/26 02:21:42;;;;;;;2.95;1.38;;;;;;;;;;5070736;28;20209;-64
2022/07/26 02:24:09;;;;;;;1.92;1.48;;;;;;;;;;5072452;28;20583;-64
2022/07/26 02:26:36;;;;;;;1.52;1.42;;;;;;;;;;5078269;28;20658;-64
2022/07/26 02:29:04;;;;;;;1.40;1.30;;;;;;;;;;5069926;28;20214;-64
2022/07/26 02:31:31;;;;;;;3.05;1.13;;;;;;;;;;5067209;28;20207;-64
2022/07/26 02:33:58;;;;;;;1.67;1.05;;;;;;;;;;5055575;28;20237;-64
2022/07/26 02:36:25;;;;;;;3.83;1.20;;;;;;;;;;5068695;28;20220;-64
2022/07/26 02:38:52;;;;;;;1.48;1.35;;;;;;;;;;5063846;28;20651;-64
2022/07/26 02:41:22;;;;;;;2.67;1.45;;;;;;;;;;5068630;28;20199;-64
2022/07/26 02:43:49;;;;;;;2.95;1.30;;;;;;;;;;5065151;28;20584;-64
2022/07/26 02:46:18;;;;;;;1.48;1.33;;;;;;;;;;5068235;28;20196;-64
2022/07/26 02:48:45;;;;;;;2.35;1.25;;;;;;;;;;5066864;28;20207;-64
2022/07/26 02:51:12;;;;;;;2.13;0.90;;;;;;;;;;5067023;28;20236;-64
2022/07/26 02:53:39;;;;;;;1.92;1.10;;;;;;;;;;5069952;28;20222;-64
2022/07/26 02:56:06;;;;;;;1.05;1.05;;;;;;;;;;5067626;28;20231;-64
2022/07/26 02:58:33;;;;;;;2.03;1.00;;;;;;;;;;5069551;28;20242;-65
2022/07/26 03:01:00;;;;;;;1.25;1.10;;;;;;;;;;5066927;28;20223;-64
2022/07/26 03:03:28;;;;;;;1.17;1.08;;;;;;;;;;5066503;28;20673;-64
2022/07/26 03:05:55;;;;;;;1.00;1.00;;;;;;;;;;5064255;28;20207;-64
2022/07/26 03:08:22;;;;;;;6.90;1.13;;;;;;;;;;5068368;28;20211;-64
2022/07/26 03:10:50;;;;;;;5.15;1.52;;;;;;;;;;5067746;28;20211;-64
2022/07/26 03:13:17;;;;;;;3.15;1.15;;;;;;;;;;5066423;28;20207;-65
2022/07/26 03:15:44;;;;;;;1.40;1.30;;;;;;;;;;5064556;28;20241;-64
2022/07/26 03:18:11;;;;;;;1.65;1.08;;;;;;;;;;5067379;28;20211;-64
2022/07/26 03:20:40;;;;;;;1.92;1.42;;;;;;;;;;5066075;28;20265;-64
2022/07/26 03:23:07;;;;;;;2.92;1.10;;;;;;;;;;5066902;28;20211;-64
2022/07/26 03:25:34;;;;;;;1.23;1.13;;;;;;;;;;5063673;28;20204;-64
2022/07/26 03:28:01;;;;;;;3.75;1.27;;;;;;;;;;5065924;28;20211;-63
2022/07/26 03:30:28;;;;;;;1.55;1.45;;;;;;;;;;5064356;28;20210;-63
2022/07/26 03:32:55;;;;;;;1.42;1.40;;;;;;;;;;5066349;28;20206;-64
2022/07/26 03:35:23;;;;;;;1.90;1.10;;;;;;;;;;5065922;28;20207;-63
2022/07/26 03:37:51;;;;;;;1.40;1.20;;;;;;;;;;5066989;28;20214;-65
2022/07/26 03:40:19;;;;;;;2.75;1.40;;;;;;;;;;5063267;28;20199;-64
2022/07/26 03:42:46;;;;;;;1.50;1.40;;;;;;;;;;5064129;28;20203;-63
2022/07/26 03:45:14;;;;;;;1.65;1.55;;;;;;;;;;5062952;28;20211;-63
2022/07/26 03:47:41;;;;;;;1.63;1.42;;;;;;;;;;5058935;28;20257;-63
2022/07/26 03:50:09;;;;;;;1.20;1.20;;;;;;;;;;5067445;28;20203;-63
2022/07/26 03:52:36;;;;;;;1.85;1.30;;;;;;;;;;5054204;28;20200;-64
2022/07/26 03:56:27;;;;;;;6.35;1.63;;;;;;;;;;5053082;28;20598;-64
2022/07/26 03:57:51;;;;;;;1.50;1.40;;;;;;;;;;5070985;28;20296;-65
2022/07/26 04:00:18;;;;;;;1.38;1.17;;;;;;;;;;5068450;28;20291;-64
2022/07/26 04:02:45;;;;;;;4.40;1.88;;;;;;;;;;5061118;28;20203;-65
2022/07/26 04:05:12;;;;;;;1.45;1.35;;;;;;;;;;5065590;28;20235;-65
2022/07/26 04:07:43;;;;;;;1.55;1.40;;;;;;;;;;5051222;28;20254;-65
2022/07/26 04:10:12;;;;;;;1.92;1.20;;;;;;;;;;5065751;28;20218;-65
2022/07/26 04:12:39;;;;;;;4.97;1.20;;;;;;;;;;5070357;28;20207;-65
2022/07/26 04:15:07;;;;;;;1.45;1.35;;;;;;;;;;5069557;28;20584;-65
2022/07/26 04:17:37;;;;;;;1.42;1.17;;;;;;;;;;5069168;28;20218;-65
2022/07/26 04:20:05;;;;;;;3.55;1.60;;;;;;;;;;5061933;28;20671;-65
2022/07/26 04:22:32;;;;;;;1.85;1.42;;;;;;;;;;5061784;28;20207;-64
2022/07/26 04:24:59;;;;;;;1.80;1.40;;;;;;;;;;5062661;28;20203;-65
2022/07/26 04:27:27;;;;;;;1.40;1.30;;;;;;;;;;5063961;28;20210;-67
2022/07/26 04:29:54;;;;;;;2.67;1.42;;;;;;;;;;5053687;28;20222;-64
2022/07/26 04:32:21;;;;;;;1.85;1.35;;;;;;;;;;5069655;28;20207;-64
2022/07/26 04:34:48;;;;;;;1.63;1.20;;;;;;;;;;5068858;28;20211;-64
2022/07/26 04:37:15;;;;;;;1.13;1.13;;;;;;;;;;5058816;28;20235;-64
2022/07/26 04:39:43;;;;;;;1.40;0.88;;;;;;;;;;5062415;28;20212;-64
2022/07/26 04:42:10;;;;;;;1.92;1.10;;;;;;;;;;5055639;28;20281;-64
2022/07/26 04:44:38;;;;;;;1.08;0.73;;;;;;;;;;5068504;28;20209;-64
2022/07/26 04:47:06;;;;;;;3.28;1.17;;;;;;;;;;5062201;28;20210;-64
2022/07/26 04:49:33;;;;;;;4.00;0.90;;;;;;;;;;5050964;28;20220;-64
2022/07/26 04:52:00;;;;;;;1.45;0.75;;;;;;;;;;5055052;28;20202;-64
2022/07/26 04:54:27;;;;;;;1.75;0.80;;;;;;;;;;5054807;28;20257;-64
2022/07/26 04:56:54;;;;;;;1.95;1.02;;;;;;;;;;5061390;28;20232;-64
2022/07/26 04:59:40;;;;;;;2.47;1.30;;;;;;;;;;5039019;28;20222;-64
2022/07/26 05:02:07;;;;;;;0.80;0.80;;;;;;;;;;5062127;28;20276;-64
2022/07/26 05:04:34;;;;;;;2.55;0.75;;;;;;;;;;5067193;28;20619;-64
2022/07/26 05:07:02;;;;;;;0.70;0.70;;;;;;;;;;5053600;28;20264;-64
2022/07/26 05:09:29;;;;;;;7.97;0.80;;;;;;;;;;5068992;28;20238;-64
2022/07/26 05:11:56;;;;;;;1.55;0.68;;;;;;;;;;5063085;28;20215;-64
2022/07/26 05:14:23;;;;;;;0.70;0.70;;;;;;;;;;5065461;28;20207;-64
2022/07/26 05:16:51;;;;;;;0.77;0.68;;;;;;;;;;5062078;28;20296;-64
2022/07/26 05:19:18;;;;;;;4.38;0.98;;;;;;;;;;5060765;28;20207;-64
2022/07/26 05:21:45;;;;;;;0.70;0.57;;;;;;;;;;5068784;28;20211;-64
2022/07/26 05:24:12;;;;;;;1.48;0.60;;;;;;;;;;5067137;28;20215;-65
2022/07/26 05:26:39;;;;;;;0.60;0.60;;;;;;;;;;5058849;28;20198;-64
2022/07/26 05:29:06;;;;;;;2.60;0.75;;;;;;;;;;5068936;28;20577;-64
2022/07/26 05:31:33;;;;;;;1.20;0.80;;;;;;;;;;5067016;28;20199;-64
2022/07/26 05:34:02;;;;;;;2.38;0.93;;;;;;;;;;5063616;28;20207;-63
2022/07/26 05:36:29;;;;;;;2.30;0.80;;;;;;;;;;5060686;28;20280;-63
2022/07/26 05:38:56;;;;;;;4.15;0.82;;;;;;;;;;5057919;28;20210;-64
2022/07/26 05:41:23;;;;;;;1.90;0.60;;;;;;;;;;5052057;28;20466;-62
2022/07/26 05:43:50;;;;;;;3.55;0.77;;;;;;;;;;5048711;28;20209;-62
2022/07/26 05:46:18;;;;;;;5.55;0.60;;;;;;;;;;5059469;28;20206;-62
2022/07/26 05:48:45;;;;;;;0.93;0.52;;;;;;;;;;5053661;28;20200;-61
2022/07/26 05:51:13;;;;;;;1.20;0.80;;;;;;;;;;5052971;28;20608;-61
2022/07/26 05:53:40;;;;;;;3.30;0.60;;;;;;;;;;5059821;28;20201;-61
2022/07/26 05:56:07;;;;;;;2.80;0.65;;;;;;;;;;5075687;28;20226;-61
2022/07/26 05:58:34;;;;;;;2.58;0.70;;;;;;;;;;5070594;28;20242;-62
2022/07/26 06:01:01;;;;;;;1.27;0.60;;;;;;;;;;5063006;28;20306;-62
2022/07/26 06:03:30;;;;;;;3.70;0.70;;;;;;;;;;5053496;28;20207;-62
2022/07/26 06:05:58;;;;;;;3.65;0.80;;;;;;;;;;5064662;28;20222;-63
2022/07/26 06:08:27;;;;;;;2.05;0.80;;;;;;;;;;5061422;28;20199;-63
2022/07/26 06:10:54;;;;;;;0.68;0.68;;;;;;;;;;5065034;28;20215;-63
2022/07/26 06:13:21;;;;;;;1.27;0.70;;;;;;;;;;5064768;28;20238;-63
2022/07/26 06:15:48;;;;;;;2.30;0.63;;;;;;;;;;5064704;28;20210;-61
2022/07/26 06:18:15;;;;;;;3.60;0.50;;;;;;;;;;5064389;28;20241;-60
2022/07/26 06:20:44;;;;;;;0.95;0.93;;;;;;;;;;5058803;28;20234;-61
2022/07/26 06:23:11;;;;;;;2.10;0.70;;;;;;;;;;5044437;28;20262;-61
2022/07/26 06:25:39;;;;;;;0.60;0.60;;;;;;;;;;5044736;28;20214;-62
2022/07/26 06:28:07;;;;;;;2.60;0.77;;;;;;;;;;5053790;28;20203;-61
2022/07/26 06:30:34;;;;;;;1.38;0.60;;;;;;;;;;5059916;28;20200;-61
2022/07/26 06:33:01;;;;;;;1.17;1.10;;;;;;;;;;5055348;28;20207;-62
2022/07/26 06:35:30;;;;;;;0.70;0.70;;;;;;;;;;5063766;28;20203;-62
2022/07/26 06:37:58;;;;;;;0.80;0.80;;;;;;;;;;5065536;28;20219;-62
2022/07/26 06:40:26;;;;;;;0.50;0.50;;;;;;;;;;5068311;28;20207;-63
2022/07/26 06:42:54;;;;;;;1.05;0.65;;;;;;;;;;5068230;28;20230;-64
2022/07/26 06:45:21;;;;;;;1.05;0.60;;;;;;;;;;5068084;28;20406;-62
2022/07/26 06:47:48;;;;;;;3.30;0.70;;;;;;;;;;5068307;28;20222;-63
2022/07/26 06:50:15;;;;;;;0.60;0.60;;;;;;;;;;5059299;28;20207;-62
2022/07/26 06:52:42;;;;;;;1.60;0.77;;;;;;;;;;5068159;28;20211;-62
2022/07/26 06:55:09;;;;;;;1.85;0.80;;;;;;;;;;5067756;28;20235;-62
2022/07/26 06:57:37;;;;;;;0.93;0.60;;;;;;;;;;5067245;28;20717;-63
2022/07/26 07:00:06;;;;;;;1.77;0.55;;;;;;;;;;5067398;28;20962;-62
2022/07/26 07:02:33;;;;;;;3.10;0.70;;;;;;;;;;5067023;28;21033;-62
2022/07/26 07:05:00;;;;;;;0.82;0.77;;;;;;;;;;5066893;28;20681;-62
2022/07/26 07:07:27;;;;;;;1.55;0.60;;;;;;;;;;5066254;28;20203;-62
2022/07/26 07:09:54;;;;;;;1.23;0.60;;;;;;;;;;5071627;28;20237;-64
2022/07/26 07:12:21;;;;;;;1.45;0.77;;;;;;;;;;5087003;28;20210;-63
2022/07/26 07:14:48;;;;;;;1.65;0.80;;;;;;;;;;5086955;28;20585;-64
2022/07/26 07:17:19;;;;;;;0.50;0.50;;;;;;;;;;5073206;28;20280;-63
2022/07/26 07:19:46;;;;;;;0.63;0.50;;;;;;;;;;5062770;28;20678;-63
2022/07/26 07:22:13;;;;;;;1.05;0.80;;;;;;;;;;5060658;28;20215;-63
2022/07/26 07:24:40;;;;;;;4.40;0.80;;;;;;;;;;5047372;28;21039;-63
2022/07/26 07:27:07;;;;;;;1.98;0.60;;;;;;;;;;5058020;28;20200;-63
2022/07/26 07:29:34;;;;;;;0.95;0.60;;;;;;;;;;5065970;28;20210;-64
2022/07/26 07:32:01;;;;;;;0.50;0.50;;;;;;;;;;5065990;28;20211;-63
2022/07/26 07:34:30;;;;;;;1.88;0.50;;;;;;;;;;5065573;28;20703;-61
2022/07/26 07:36:57;;;;;;;0.90;0.50;;;;;;;;;;5065384;28;21034;-61
2022/07/26 07:39:24;;;;;;;0.50;0.50;;;;;;;;;;5065410;28;20211;-61
2022/07/26 07:41:51;;;;;;;0.88;0.70;;;;;;;;;;5065070;28;20233;-61
2022/07/26 07:44:18;;;;;;;0.40;0.40;;;;;;;;;;5048683;28;20208;-61
2022/07/26 07:46:45;;;;;;;1.40;0.70;;;;;;;;;;5045948;28;20673;-61
2022/07/26 07:49:12;;;;;;;1.13;0.80;;;;;;;;;;5045670;28;20243;-61
2022/07/26 07:51:40;;;;;;;0.98;0.60;;;;;;;;;;5046708;28;20211;-61
2022/07/26 07:54:07;;;;;;;0.98;0.98;;;;;;;;;;5048750;28;20204;-61
2022/07/26 07:56:35;;;;;;;0.77;0.70;;;;;;;;;;5064608;28;20336;-61
2022/07/26 07:59:02;;;;;;;1.00;0.50;;;;;;;;;;5061778;28;20238;-65
2022/07/26 08:01:29;;;;;;;4.40;0.73;;;;;;;;;;5059988;28;20210;-69
2022/07/26 08:03:56;;;;;;;1.75;0.82;;;;;;;;;;5060622;28;20277;-68
2022/07/26 08:06:23;;;;;;;1.77;0.60;;;;;;;;;;5060094;28;21039;-75
2022/07/26 08:08:51;;;;;;;2.95;0.70;;;;;;;;;;5056800;28;20580;-63
2022/07/26 08:11:18;;;;;;;0.85;0.60;;;;;;;;;;5058114;28;20241;-64
2022/07/26 08:13:45;;;;;;;2.28;0.50;;;;;;;;;;5064533;28;20222;-72
2022/07/26 08:16:12;;;;;;;1.10;0.57;;;;;;;;;;5057620;28;20212;-63
2022/07/26 08:18:39;;;;;;;1.38;0.70;;;;;;;;;;5063027;28;20223;-65
2022/07/26 08:21:06;;;;;;;2.92;0.77;;;;;;;;;;5061255;28;20202;-62
2022/07/26 08:23:33;;;;;;;1.00;0.68;;;;;;;;;;5065855;28;20758;-64
2022/07/26 08:26:02;;;;;;;0.63;0.57;;;;;;;;;;5056240;28;20213;-63
2022/07/26 08:28:29;;;;;;;0.50;0.50;;;;;;;;;;5065075;28;20211;-63
2022/07/26 08:30:56;;;;;;;0.63;0.50;;;;;;;;;;5059181;28;20707;-63
2022/07/26 08:33:23;;;;;;;0.75;0.70;;;;;;;;;;5057084;28;20242;-62
2022/07/26 08:35:50;;;;;;;0.88;0.70;;;;;;;;;;5063572;28;20246;-61
2022/07/26 08:38:17;;;;;;;3.22;0.60;;;;;;;;;;5062037;28;20219;-66
2022/07/26 08:40:44;;;;;;;0.60;0.60;;;;;;;;;;5052684;28;20230;-63
2022/07/26 08:43:12;;;;;;;0.93;0.63;;;;;;;;;;5063036;28;20203;-63
2022/07/26 08:45:40;;;;;;;0.70;0.70;;;;;;;;;;5045823;28;20261;-65
2022/07/26 08:48:07;;;;;;;0.50;0.50;;;;;;;;;;5046211;28;20306;-62
2022/07/26 08:50:34;;;;;;;1.77;0.50;;;;;;;;;;5046166;28;20203;-63
2022/07/26 08:53:02;;;;;;;0.45;0.45;;;;;;;;;;5053273;28;20802;-63
2022/07/26 08:55:30;;;;;;;0.50;0.50;;;;;;;;;;5062689;28;20270;-63
2022/07/26 08:57:57;;;;;;;1.35;0.80;;;;;;;;;;5062930;28;20242;-63
2022/07/26 09:00:28;;;;;;;1.27;0.50;;;;;;;;;;5056692;28;21041;-63
2022/07/26 09:02:55;;;;;;;4.32;0.80;;;;;;;;;;5044625;28;20219;-62
2022/07/26 09:05:27;;;;;;;3.45;0.80;;;;;;;;;;5044471;28;20746;-63
2022/07/26 09:07:54;;;;;;;0.60;0.60;;;;;;;;;;5060704;28;20209;-64
2022/07/26 09:10:21;;;;;;;0.40;0.40;;;;;;;;;;5064802;28;21084;-64
2022/07/26 09:12:53;;;;;;;2.25;0.43;;;;;;;;;;5064821;28;20218;-63
2022/07/26 09:15:21;;;;;;;0.60;0.60;;;;;;;;;;5063729;28;20214;-61
2022/07/26 09:17:50;;;;;;;0.63;0.60;;;;;;;;;;5056793;28;20228;-63
2022/07/26 09:20:19;;;;;;;0.60;0.60;;;;;;;;;;5053117;28;20627;-64
2022/07/26 09:23:00;;;;;;;0.50;0.50;;;;;;;;;;5044482;28;20211;-63
2022/07/26 09:25:28;;;;;;;2.53;0.70;;;;;;;;;;5045762;28;20235;-61
2022/07/26 09:27:55;;;;;;;0.60;0.60;;;;;;;;;;5050467;28;20207;-63
2022/07/26 09:30:22;;;;;;;2.55;0.60;;;;;;;;;;5051462;28;20211;-63
2022/07/26 09:33:01;;;;;;;2.30;0.60;;;;;;;;;;5044196;28;20238;-63
2022/07/26 09:35:29;;;;;;;0.60;0.60;;;;;;;;;;5055974;28;20206;-63
2022/07/26 09:37:56;;;;;;;1.60;0.70;;;;;;;;;;5050239;28;20759;-64
2022/07/26 09:40:23;;;;;;;2.80;1.50;;;;;;;;;;5063906;28;20215;-61
2022/07/26 09:42:55;;;;;;;0.50;0.50;;;;;;;;;;5064133;28;20207;-65
2022/07/26 09:45:22;;;;;;;0.52;0.52;;;;;;;;;;5063539;28;20219;-65
2022/07/26 09:47:49;;;;;;;0.68;0.60;;;;;;;;;;5054568;28;20203;-65
2022/07/26 09:50:18;;;;;;;0.70;0.70;;;;;;;;;;5043214;28;20274;-65
2022/07/26 09:52:58;;;;;;;3.53;0.60;;;;;;;;;;5043057;28;20836;-63
2022/07/26 09:55:25;;;;;;;0.52;0.52;;;;;;;;;;5043286;28;20235;-65
2022/07/26 09:57:52;;;;;;;1.48;0.50;;;;;;;;;;5049890;28;20246;-66
2022/07/26 10:00:20;;;;;;;0.50;0.50;;;;;;;;;;5063295;28;20260;-67
2022/07/26 10:02:47;;;;;;;0.50;0.47;;;;;;;;;;5063417;28;20480;-66
2022/07/26 10:05:14;;;;;;;0.52;0.52;;;;;;;;;;5062631;28;20649;-66
2022/07/26 10:07:42;;;;;;;4.90;0.60;;;;;;;;;;5058697;28;20214;-66
2022/07/26 10:10:11;;;;;;;0.50;0.50;;;;;;;;;;5051696;28;20674;-64
2022/07/26 10:12:39;;;;;;;0.60;0.60;;;;;;;;;;5063275;28;20214;-66
2022/07/26 10:15:07;;;;;;;0.50;0.50;;;;;;;;;;5061762;28;20203;-62
2022/07/26 10:17:41;;;;;;;2.10;0.57;;;;;;;;;;5047694;28;20205;-65
2022/07/26 10:20:09;;;;;;;1.52;0.80;;;;;;;;;;5065413;28;20268;-64
2022/07/26 10:22:43;;;;;;;0.82;0.50;;;;;;;;;;5049331;28;20211;-66
2022/07/26 10:25:29;;;;;;;0.68;0.68;;;;;;;;;;5049100;28;20211;-65
2022/07/26 10:27:57;;;;;;;0.57;0.57;;;;;;;;;;5066233;28;20207;-67
2022/07/26 10:30:25;;;;;;;1.10;0.50;;;;;;;;;;5065461;28;20781;-66
2022/07/26 10:32:59;;;;;;;1.40;0.65;;;;;;;;;;5067213;28;20330;-66
2022/07/26 10:35:32;;;;;;;0.70;0.57;;;;;;;;;;5055278;28;20302;-65
2022/07/26 10:38:01;;;;;;;0.43;0.43;;;;;;;;;;5062674;28;20233;-65
2022/07/26 10:40:29;;;;;;;0.95;0.52;;;;;;;;;;5067672;28;20215;-65
2022/07/26 10:43:07;;;;;;;0.55;0.55;;;;;;;;;;5067666;28;20222;-66
2022/07/26 10:45:35;;;;;;;0.43;0.43;;;;;;;;;;5048200;28;20742;-66
2022/07/26 10:48:13;;;;;;;1.75;0.50;;;;;;;;;;5059147;28;20704;-66
2022/07/26 10:50:40;;;;;;;0.50;0.50;;;;;;;;;;5066979;28;20226;-66
2022/07/26 10:53:09;;;;;;;0.40;0.40;;;;;;;;;;5067664;28;20581;-67
2022/07/26 10:55:46;;;;;;;0.82;0.65;;;;;;;;;;5066044;28;20318;-67
2022/07/26 10:58:13;;;;;;;1.20;0.52;;;;;;;;;;5065882;28;20262;-69
2022/07/26 11:00:41;;;;;;;1.15;0.57;;;;;;;;;;5066230;28;20775;-72
2022/07/26 11:03:08;;;;;;;0.60;0.60;;;;;;;;;;5055421;28;20203;-69
2022/07/26 11:05:35;;;;;;;1.90;0.68;;;;;;;;;;5046671;28;20203;-69
2022/07/26 11:08:06;;;;;;;1.83;1.65;;;;;;;;;;5048230;28;20250;-71
2022/07/26 11:10:36;;;;;;;6.28;4.00;;;;;;;;;;5052856;28;20210;-66
2022/07/26 11:13:07;;;;;;;8.57;5.00;;;;;;;;;;5056456;28;20260;-66
2022/07/26 11:15:35;;;;;;;2.47;2.17;;;;;;;;;;5059375;28;20318;-66
2022/07/26 11:18:09;;;;;;;0.80;0.80;;;;;;;;;;5056244;28;20234;-66
2022/07/26 11:20:36;;;;;;;0.60;0.60;;;;;;;;;;5055574;28;20211;-65
2022/07/26 11:23:03;;;;;;;0.85;0.50;;;;;;;;;;5061772;28;20195;-65
2022/07/26 11:25:30;;;;;;;1.27;0.50;;;;;;;;;;5060600;28;20214;-64
2022/07/26 11:28:02;;;;;;;0.60;0.60;;;;;;;;;;5065965;28;20214;-64
2022/07/26 11:30:29;;;;;;;0.40;0.40;;;;;;;;;;5049219;28;20219;-64
2022/07/26 11:32:57;;;;;;;0.60;0.60;;;;;;;;;;5057406;28;20203;-64
2022/07/26 11:35:25;;;;;;;0.40;0.40;;;;;;;;;;5062106;28;20597;-64
2022/07/26 11:37:55;;;;;;;0.40;0.40;;;;;;;;;;5063921;28;20309;-64
2022/07/26 11:40:41;;;;;;;1.08;0.50;;;;;;;;;;5060833;28;20700;-65
2022/07/26 11:43:10;;;;;;;0.50;0.50;;;;;;;;;;5058485;28;20213;-65
2022/07/26 11:45:37;;;;;;;0.93;0.57;;;;;;;;;;5062974;28;20207;-65
2022/07/26 11:48:04;;;;;;;0.50;0.50;;;;;;;;;;5066033;28;20202;-64
2022/07/26 11:50:31;;;;;;;4.30;0.70;;;;;;;;;;5063876;28;20196;-65
2022/07/26 11:52:58;;;;;;;1.13;0.60;;;;;;;;;;5047026;28;20222;-64
2022/07/26 11:55:26;;;;;;;1.98;0.50;;;;;;;;;;5067954;28;20238;-64
2022/07/26 11:57:53;;;;;;;0.38;0.38;;;;;;;;;;5061037;28;20319;-65
2022/07/26 12:00:22;;;;;;;1.10;0.60;;;;;;;;;;5065597;28;20723;-64
2022/07/26 12:02:50;;;;;;;2.38;0.60;;;;;;;;;;5065657;28;20308;-64
2022/07/26 12:05:17;;;;;;;0.60;0.60;;;;;;;;;;5065224;28;20207;-64
2022/07/26 12:07:55;;;;;;;0.60;0.60;;;;;;;;;;5049507;28;20207;-64
2022/07/26 12:10:22;;;;;;;0.50;0.50;;;;;;;;;;5045588;28;20522;-65
2022/07/26 12:12:49;;;;;;;0.80;0.80;;;;;;;;;;5045875;28;20208;-65
2022/07/26 12:15:16;;;;;;;2.10;0.80;;;;;;;;;;5065114;28;20214;-65
2022/07/26 12:20:39;;;;;;;0.80;0.80;;;;;;;;;;5081340;28;21306;-65
2022/07/26 12:23:06;;;;;;;1.17;0.70;;;;;;;;;;5080186;28;20229;-65
2022/07/26 12:25:36;;;;;;;0.85;0.85;;;;;;;;;;5081119;28;20217;-64
2022/07/26 12:28:05;;;;;;;0.85;0.82;;;;;;;;;;5079912;28;21050;-64
2022/07/26 12:30:35;;;;;;;0.70;0.70;;;;;;;;;;5080851;28;20696;-65
2022/07/26 12:33:02;;;;;;;1.85;0.77;;;;;;;;;;5080909;28;20206;-65
2022/07/26 12:35:31;;;;;;;0.70;0.70;;;;;;;;;;5079932;28;20210;-65
2022/07/26 12:37:59;;;;;;;1.17;1.08;;;;;;;;;;5078786;28;20224;-65
2022/07/26 12:40:27;;;;;;;3.75;0.80;;;;;;;;;;5077811;28;20230;-65
2022/07/26 12:42:55;;;;;;;0.77;0.60;;;;;;;;;;5072502;28;20218;-64
2022/07/26 12:45:23;;;;;;;2.90;0.65;;;;;;;;;;5074976;28;20217;-66
2022/07/26 12:47:51;;;;;;;0.80;0.80;;;;;;;;;;5080796;28;20218;-63
2022/07/26 12:50:20;;;;;;;1.35;1.05;;;;;;;;;;5080873;28;20207;-64
2022/07/26 12:52:47;;;;;;;0.75;0.75;;;;;;;;;;5081084;28;20206;-65
2022/07/26 12:55:17;;;;;;;1.48;0.98;;;;;;;;;;5072205;28;20254;-65
2022/07/26 12:57:45;;;;;;;2.08;0.90;;;;;;;;;;5060546;28;20673;-64
2022/07/26 13:00:14;;;;;;;1.52;0.80;;;;;;;;;;5060073;28;20759;-65
2022/07/26 13:02:42;;;;;;;1.58;0.80;;;;;;;;;;5052401;28;20784;-65
2022/07/26 13:05:10;;;;;;;0.80;0.80;;;;;;;;;;5060412;28;20669;-64
2022/07/26 13:07:37;;;;;;;1.52;0.80;;;;;;;;;;5059968;28;20272;-64
2022/07/26 13:10:11;;;;;;;1.52;0.95;;;;;;;;;;5059610;28;20226;-64
2022/07/26 13:12:40;;;;;;;0.77;0.77;;;;;;;;;;5057673;28;20264;-64
2022/07/26 13:15:08;;;;;;;4.45;0.90;;;;;;;;;;5059757;28;20261;-64
2022/07/26 13:17:35;;;;;;;1.58;0.93;;;;;;;;;;5059302;28;20215;-65
2022/07/26 13:20:02;;;;;;;1.00;1.00;;;;;;;;;;5059529;28;20239;-64
2022/07/26 13:22:29;;;;;;;1.88;0.90;;;;;;;;;;5060124;28;20223;-64
2022/07/26 13:24:56;;;;;;;3.25;1.27;;;;;;;;;;5060036;28;20207;-65
2022/07/26 13:27:23;;;;;;;1.10;1.10;;;;;;;;;;5059345;28;20222;-65
2022/07/26 13:29:51;;;;;;;0.80;0.80;;;;;;;;;;5058206;28;20211;-64
2022/07/26 13:32:19;;;;;;;1.75;1.00;;;;;;;;;;5046135;28;20213;-65
2022/07/26 13:34:46;;;;;;;1.50;0.80;;;;;;;;;;5046379;28;20212;-65
2022/07/26 13:37:13;;;;;;;0.80;0.80;;;;;;;;;;5046161;28;20211;-65
2022/07/26 13:39:40;;;;;;;0.73;0.73;;;;;;;;;;5046259;28;20247;-65
2022/07/26 13:42:07;;;;;;;1.20;1.15;;;;;;;;;;5044263;28;20208;-64
2022/07/26 13:44:34;;;;;;;5.18;1.17;;;;;;;;;;5046199;28;20211;-64
2022/07/26 13:47:02;;;;;;;1.08;1.00;;;;;;;;;;5046594;28;20793;-62
2022/07/26 13:49:29;;;;;;;0.98;0.93;;;;;;;;;;5039026;28;20219;-64
2022/07/26 13:51:56;;;;;;;1.17;1.17;;;;;;;;;;5046379;28;20207;-64
2022/07/26 13:54:24;;;;;;;2.50;1.40;;;;;;;;;;5046508;28;20212;-63
2022/07/26 13:56:51;;;;;;;0.90;0.90;;;;;;;;;;5042355;28;20208;-64
2022/07/26 13:59:19;;;;;;;1.10;0.95;;;;;;;;;;5044479;28;20227;-62
2022/07/26 14:01:46;;;;;;;1.23;1.15;;;;;;;;;;5046068;28;20216;-62
2022/07/26 14:04:14;;;;;;;1.17;1.17;;;;;;;;;;5046749;28;20214;-60
2022/07/26 14:06:42;;;;;;;0.90;0.90;;;;;;;;;;5045815;28;20569;-62
2022/07/26 14:09:09;;;;;;;1.45;0.90;;;;;;;;;;5043297;28;20267;-62
2022/07/26 14:11:37;;;;;;;1.75;0.90;;;;;;;;;;5045687;28;20211;-62
2022/07/26 14:14:04;;;;;;;1.23;1.15;;;;;;;;;;5045914;28;20697;-61
2022/07/26 14:16:31;;;;;;;0.80;0.80;;;;;;;;;;5046361;28;20211;-63
2022/07/26 14:18:58;;;;;;;1.02;1.00;;;;;;;;;;5045789;28;20243;-63
2022/07/26 14:21:27;;;;;;;0.80;0.80;;;;;;;;;;5045904;28;20212;-62
2022/07/26 14:23:55;;;;;;;0.85;0.85;;;;;;;;;;5046410;28;20725;-63
2022/07/26 14:26:22;;;;;;;1.00;1.00;;;;;;;;;;5046676;28;20219;-62
2022/07/26 14:28:49;;;;;;;3.30;1.00;;;;;;;;;;5046226;28;20211;-63
2022/07/26 14:31:16;;;;;;;1.95;1.20;;;;;;;;;;5046508;28;20211;-63
2022/07/26 14:33:43;;;;;;;1.13;0.90;;;;;;;;;;5045863;28;20731;-64
2022/07/26 14:36:12;;;;;;;2.70;1.10;;;;;;;;;;5046212;28;20208;-64
2022/07/26 14:38:40;;;;;;;4.63;1.17;;;;;;;;;;5046192;28;20304;-63
2022/07/26 14:41:08;;;;;;;1.38;0.82;;;;;;;;;;5045921;28;20709;-63
2022/07/26 14:43:35;;;;;;;6.82;1.52;;;;;;;;;;5044184;28;20215;-63
2022/07/26 14:46:02;;;;;;;1.30;1.20;;;;;;;;;;5046206;28;20211;-63
2022/07/26 14:48:29;;;;;;;5.30;1.48;;;;;;;;;;5045666;28;20212;-63
2022/07/26 14:50:56;;;;;;;1.10;1.10;;;;;;;;;;5046040;28;20633;-63
2022/07/26 14:53:24;;;;;;;0.98;0.93;;;;;;;;;;5045601;28;20215;-64